sensor_id;sensor_type;location;lat;lon;timestamp;temperature;humidity
360;DHT22;168;48.872;9.226;2023-04-01T00:00:59;10.00;96.50
360;DHT22;168;48.872;9.226;2023-04-01T00:03:27;10.00;96.50
360;DHT22;168;48.872;9.226;2023-04-01T00:05:55;10.00;96.50
360;DHT22;168;48.872;9.226;2023-04-01T00:08:24;10.00;96.50
360;DHT22;168;48.872;9.226;2023-04-01T00:10:53;10.00;96.40
360;DHT22;168;48.872;9.226;2023-04-01T00:13:21;10.00;96.50
360;DHT22;168;48.872;9.226;2023-04-01T00:15:49;10.00;96.40
360;DHT22;168;48.872;9.226;2023-04-01T00:18:17;10.00;96.50
360;DHT22;168;48.872;9.226;2023-04-01T00:20:45;10.00;96.50
360;DHT22;168;48.872;9.226;2023-04-01T00:23:13;10.00;96.60
360;DHT22;168;48.872;9.226;2023-04-01T00:25:40;10.00;96.50
360;DHT22;168;48.872;9.226;2023-04-01T00:28:09;10.00;96.50
360;DHT22;168;48.872;9.226;2023-04-01T00:30:37;10.10;96.50
360;DHT22;168;48.872;9.226;2023-04-01T00:33:04;10.10;96.40
360;DHT22;168;48.872;9.226;2023-04-01T00:35:32;10.00;96.30
360;DHT22;168;48.872;9.226;2023-04-01T00:38:00;10.00;96.50
360;DHT22;168;48.872;9.226;2023-04-01T00:40:32;10.10;96.30
360;DHT22;168;48.872;9.226;2023-04-01T00:43:00;10.00;96.50
360;DHT22;168;48.872;9.226;2023-04-01T00:45:32;10.10;96.40
360;DHT22;168;48.872;9.226;2023-04-01T00:48:04;10.10;96.60
360;DHT22;168;48.872;9.226;2023-04-01T00:50:34;10.00;96.40
360;DHT22;168;48.872;9.226;2023-04-01T00:53:03;10.10;96.60
360;DHT22;168;48.872;9.226;2023-04-01T00:55:33;10.20;96.60
360;DHT22;168;48.872;9.226;2023-04-01T00:58:03;10.20;96.50
360;DHT22;168;48.872;9.226;2023-04-01T01:00:34;10.20;96.40
360;DHT22;168;48.872;9.226;2023-04-01T01:03:04;10.30;96.40
360;DHT22;168;48.872;9.226;2023-04-01T01:05:44;10.30;96.60
360;DHT22;168;48.872;9.226;2023-04-01T01:08:21;10.30;96.40
360;DHT22;168;48.872;9.226;2023-04-01T01:10:50;10.30;96.40
360;DHT22;168;48.872;9.226;2023-04-01T01:13:22;10.30;96.50
360;DHT22;168;48.872;9.226;2023-04-01T01:15:57;10.30;96.40
360;DHT22;168;48.872;9.226;2023-04-01T01:18:34;10.20;96.40
360;DHT22;168;48.872;9.226;2023-04-01T01:21:45;10.30;96.60
360;DHT22;168;48.872;9.226;2023-04-01T01:24:40;10.30;96.50
360;DHT22;168;48.872;9.226;2023-04-01T01:27:11;10.40;96.40
360;DHT22;168;48.872;9.226;2023-04-01T01:30:05;10.40;96.50
360;DHT22;168;48.872;9.226;2023-04-01T01:35:54;10.40;96.60
360;DHT22;168;48.872;9.226;2023-04-01T01:38:26;10.50;96.50
360;DHT22;168;48.872;9.226;2023-04-01T01:40:55;10.50;96.50
360;DHT22;168;48.872;9.226;2023-04-01T01:43:25;10.50;96.50
360;DHT22;168;48.872;9.226;2023-04-01T01:45:55;10.50;96.30
360;DHT22;168;48.872;9.226;2023-04-01T01:48:26;10.40;96.50
360;DHT22;168;48.872;9.226;2023-04-01T01:50:56;10.50;96.60
360;DHT22;168;48.872;9.226;2023-04-01T01:53:23;10.50;96.50
360;DHT22;168;48.872;9.226;2023-04-01T01:55:51;10.50;96.50
360;DHT22;168;48.872;9.226;2023-04-01T01:58:22;10.40;96.40
360;DHT22;168;48.872;9.226;2023-04-01T02:00:53;10.40;96.40
360;DHT22;168;48.872;9.226;2023-04-01T02:03:23;10.40;96.40
360;DHT22;168;48.872;9.226;2023-04-01T02:05:53;10.40;96.10
360;DHT22;168;48.872;9.226;2023-04-01T02:08:26;10.40;96.10
360;DHT22;168;48.872;9.226;2023-04-01T02:10:57;10.40;96.30
360;DHT22;168;48.872;9.226;2023-04-01T02:13:29;10.30;96.10
360;DHT22;168;48.872;9.226;2023-04-01T02:16:02;10.30;96.30
360;DHT22;168;48.872;9.226;2023-04-01T02:18:32;10.30;96.20
360;DHT22;168;48.872;9.226;2023-04-01T02:21:03;10.30;96.30
360;DHT22;168;48.872;9.226;2023-04-01T02:23:35;10.20;96.20
360;DHT22;168;48.872;9.226;2023-04-01T02:26:04;10.10;95.90
360;DHT22;168;48.872;9.226;2023-04-01T02:28:33;10.10;96.00
360;DHT22;168;48.872;9.226;2023-04-01T02:31:02;10.10;95.90
360;DHT22;168;48.872;9.226;2023-04-01T02:33:31;10.10;96.30
360;DHT22;168;48.872;9.226;2023-04-01T02:35:59;10.00;96.10
360;DHT22;168;48.872;9.226;2023-04-01T02:38:27;10.00;96.10
360;DHT22;168;48.872;9.226;2023-04-01T02:40:59;10.00;96.00
360;DHT22;168;48.872;9.226;2023-04-01T02:43:27;10.00;96.10
360;DHT22;168;48.872;9.226;2023-04-01T02:45:55;10.00;96.10
360;DHT22;168;48.872;9.226;2023-04-01T02:48:22;10.00;96.20
360;DHT22;168;48.872;9.226;2023-04-01T02:50:50;9.90;96.20
360;DHT22;168;48.872;9.226;2023-04-01T02:53:18;10.00;96.30
360;DHT22;168;48.872;9.226;2023-04-01T02:55:45;10.00;96.00
360;DHT22;168;48.872;9.226;2023-04-01T02:58:17;10.00;96.20
360;DHT22;168;48.872;9.226;2023-04-01T03:00:45;10.10;96.30
360;DHT22;168;48.872;9.226;2023-04-01T03:03:12;10.00;96.30
360;DHT22;168;48.872;9.226;2023-04-01T03:05:40;10.00;96.20
360;DHT22;168;48.872;9.226;2023-04-01T03:08:07;10.00;96.20
360;DHT22;168;48.872;9.226;2023-04-01T03:10:35;9.90;96.40
360;DHT22;168;48.872;9.226;2023-04-01T03:13:03;9.90;96.30
360;DHT22;168;48.872;9.226;2023-04-01T03:15:32;9.90;96.40
360;DHT22;168;48.872;9.226;2023-04-01T03:18:00;10.00;96.40
360;DHT22;168;48.872;9.226;2023-04-01T03:20:27;9.90;96.30
360;DHT22;168;48.872;9.226;2023-04-01T03:22:55;10.00;96.30
360;DHT22;168;48.872;9.226;2023-04-01T03:25:22;9.90;96.30
360;DHT22;168;48.872;9.226;2023-04-01T03:27:50;9.90;96.30
360;DHT22;168;48.872;9.226;2023-04-01T03:30:18;9.80;96.20
360;DHT22;168;48.872;9.226;2023-04-01T03:32:47;9.70;96.10
360;DHT22;168;48.872;9.226;2023-04-01T03:35:14;9.70;96.00
360;DHT22;168;48.872;9.226;2023-04-01T03:37:42;9.70;96.10
360;DHT22;168;48.872;9.226;2023-04-01T03:40:10;9.70;96.20
360;DHT22;168;48.872;9.226;2023-04-01T03:42:38;9.70;96.30
360;DHT22;168;48.872;9.226;2023-04-01T03:45:06;9.70;96.50
360;DHT22;168;48.872;9.226;2023-04-01T03:47:34;9.70;96.50
360;DHT22;168;48.872;9.226;2023-04-01T03:50:03;9.70;96.40
360;DHT22;168;48.872;9.226;2023-04-01T03:52:31;9.60;96.60
360;DHT22;168;48.872;9.226;2023-04-01T03:54:58;9.60;96.40
360;DHT22;168;48.872;9.226;2023-04-01T03:57:26;9.60;96.40
360;DHT22;168;48.872;9.226;2023-04-01T03:59:53;9.60;96.70
360;DHT22;168;48.872;9.226;2023-04-01T04:02:20;9.60;96.50
360;DHT22;168;48.872;9.226;2023-04-01T04:04:48;9.50;96.70
360;DHT22;168;48.872;9.226;2023-04-01T04:07:17;9.50;96.70
360;DHT22;168;48.872;9.226;2023-04-01T04:09:45;9.50;96.60
360;DHT22;168;48.872;9.226;2023-04-01T04:12:13;9.30;96.50
360;DHT22;168;48.872;9.226;2023-04-01T04:14:41;9.40;96.80
360;DHT22;168;48.872;9.226;2023-04-01T04:17:10;9.40;96.80
360;DHT22;168;48.872;9.226;2023-04-01T04:19:39;9.30;96.80
360;DHT22;168;48.872;9.226;2023-04-01T04:22:07;9.40;96.70
360;DHT22;168;48.872;9.226;2023-04-01T04:24:36;9.50;96.70
360;DHT22;168;48.872;9.226;2023-04-01T04:27:05;9.50;96.60
360;DHT22;168;48.872;9.226;2023-04-01T04:29:32;9.40;96.60
360;DHT22;168;48.872;9.226;2023-04-01T04:32:00;9.40;96.60
360;DHT22;168;48.872;9.226;2023-04-01T04:34:28;9.50;96.60
360;DHT22;168;48.872;9.226;2023-04-01T04:36:55;9.40;96.50
360;DHT22;168;48.872;9.226;2023-04-01T04:39:23;9.40;96.50
360;DHT22;168;48.872;9.226;2023-04-01T04:41:52;9.50;96.50
360;DHT22;168;48.872;9.226;2023-04-01T04:44:19;9.50;96.40
360;DHT22;168;48.872;9.226;2023-04-01T04:46:47;9.50;96.40
360;DHT22;168;48.872;9.226;2023-04-01T04:49:14;9.40;96.40
360;DHT22;168;48.872;9.226;2023-04-01T04:51:42;9.50;96.40
360;DHT22;168;48.872;9.226;2023-04-01T04:54:10;9.50;96.40
360;DHT22;168;48.872;9.226;2023-04-01T04:56:40;9.50;96.30
360;DHT22;168;48.872;9.226;2023-04-01T04:59:11;9.50;96.50
360;DHT22;168;48.872;9.226;2023-04-01T05:01:39;9.50;96.50
360;DHT22;168;48.872;9.226;2023-04-01T05:04:07;9.50;96.50
360;DHT22;168;48.872;9.226;2023-04-01T05:06:34;9.50;96.40
360;DHT22;168;48.872;9.226;2023-04-01T05:09:12;9.50;96.50
360;DHT22;168;48.872;9.226;2023-04-01T05:11:39;9.50;96.60
360;DHT22;168;48.872;9.226;2023-04-01T05:14:13;9.50;96.60
360;DHT22;168;48.872;9.226;2023-04-01T05:16:43;9.50;96.70
360;DHT22;168;48.872;9.226;2023-04-01T05:19:17;9.60;96.60
360;DHT22;168;48.872;9.226;2023-04-01T05:21:53;9.50;96.60
360;DHT22;168;48.872;9.226;2023-04-01T05:24:27;9.60;96.60
360;DHT22;168;48.872;9.226;2023-04-01T05:26:56;9.50;96.60
360;DHT22;168;48.872;9.226;2023-04-01T05:29:39;9.50;96.60
360;DHT22;168;48.872;9.226;2023-04-01T05:32:07;9.50;96.60
360;DHT22;168;48.872;9.226;2023-04-01T05:34:36;9.50;96.70
360;DHT22;168;48.872;9.226;2023-04-01T05:37:09;9.60;96.70
360;DHT22;168;48.872;9.226;2023-04-01T05:40:24;9.60;96.70
360;DHT22;168;48.872;9.226;2023-04-01T05:42:43;9.70;96.70
360;DHT22;168;48.872;9.226;2023-04-01T05:45:12;9.80;96.70
360;DHT22;168;48.872;9.226;2023-04-01T05:47:41;9.80;96.80
360;DHT22;168;48.872;9.226;2023-04-01T05:50:09;9.90;96.50
360;DHT22;168;48.872;9.226;2023-04-01T05:52:42;10.00;96.40
360;DHT22;168;48.872;9.226;2023-04-01T05:55:11;10.00;96.30
360;DHT22;168;48.872;9.226;2023-04-01T05:57:41;10.00;96.60
360;DHT22;168;48.872;9.226;2023-04-01T06:00:12;10.10;96.50
360;DHT22;168;48.872;9.226;2023-04-01T06:02:40;10.10;96.20
360;DHT22;168;48.872;9.226;2023-04-01T06:05:14;10.20;96.20
360;DHT22;168;48.872;9.226;2023-04-01T06:07:43;10.40;96.40
360;DHT22;168;48.872;9.226;2023-04-01T06:10:13;10.70;95.80
360;DHT22;168;48.872;9.226;2023-04-01T06:12:58;10.90;94.40
360;DHT22;168;48.872;9.226;2023-04-01T06:18:11;11.10;92.90
360;DHT22;168;48.872;9.226;2023-04-01T06:20:44;11.10;92.90
360;DHT22;168;48.872;9.226;2023-04-01T06:23:47;11.20;92.90
360;DHT22;168;48.872;9.226;2023-04-01T06:26:28;11.10;92.60
360;DHT22;168;48.872;9.226;2023-04-01T06:29:10;11.10;92.10
360;DHT22;168;48.872;9.226;2023-04-01T06:35:00;11.00;92.50
360;DHT22;168;48.872;9.226;2023-04-01T06:41:01;11.10;92.20
360;DHT22;168;48.872;9.226;2023-04-01T06:43:39;11.10;92.60
360;DHT22;168;48.872;9.226;2023-04-01T06:46:15;11.10;92.90
360;DHT22;168;48.872;9.226;2023-04-01T06:48:59;11.10;92.60
360;DHT22;168;48.872;9.226;2023-04-01T06:51:36;11.10;91.90
360;DHT22;168;48.872;9.226;2023-04-01T06:54:08;11.00;92.30
360;DHT22;168;48.872;9.226;2023-04-01T06:56:37;11.00;92.90
360;DHT22;168;48.872;9.226;2023-04-01T06:59:11;11.00;92.30
360;DHT22;168;48.872;9.226;2023-04-01T07:01:44;11.00;92.50
360;DHT22;168;48.872;9.226;2023-04-01T07:04:15;11.00;93.00
360;DHT22;168;48.872;9.226;2023-04-01T07:06:48;11.10;92.90
360;DHT22;168;48.872;9.226;2023-04-01T07:09:20;11.20;92.30
360;DHT22;168;48.872;9.226;2023-04-01T07:11:50;11.10;92.60
360;DHT22;168;48.872;9.226;2023-04-01T07:14:20;11.20;92.60
360;DHT22;168;48.872;9.226;2023-04-01T07:16:53;11.20;92.20
360;DHT22;168;48.872;9.226;2023-04-01T07:19:27;11.30;92.20
360;DHT22;168;48.872;9.226;2023-04-01T07:22:01;11.30;92.10
360;DHT22;168;48.872;9.226;2023-04-01T07:24:34;11.20;92.10
360;DHT22;168;48.872;9.226;2023-04-01T07:27:04;11.20;92.50
360;DHT22;168;48.872;9.226;2023-04-01T07:29:32;11.30;92.80
360;DHT22;168;48.872;9.226;2023-04-01T07:32:22;11.30;91.60
360;DHT22;168;48.872;9.226;2023-04-01T07:35:04;11.20;92.40
360;DHT22;168;48.872;9.226;2023-04-01T07:37:41;11.10;92.60
360;DHT22;168;48.872;9.226;2023-04-01T07:40:21;11.10;92.30
360;DHT22;168;48.872;9.226;2023-04-01T07:43:02;11.00;92.60
360;DHT22;168;48.872;9.226;2023-04-01T07:45:36;11.10;93.00
360;DHT22;168;48.872;9.226;2023-04-01T07:48:19;11.20;93.20
360;DHT22;168;48.872;9.226;2023-04-01T07:50:54;11.20;92.90
360;DHT22;168;48.872;9.226;2023-04-01T07:53:40;11.30;92.70
360;DHT22;168;48.872;9.226;2023-04-01T07:56:15;11.40;92.30
360;DHT22;168;48.872;9.226;2023-04-01T07:58:51;11.50;91.80
360;DHT22;168;48.872;9.226;2023-04-01T08:01:27;11.50;92.40
360;DHT22;168;48.872;9.226;2023-04-01T08:04:15;11.60;91.70
360;DHT22;168;48.872;9.226;2023-04-01T08:06:49;11.60;91.70
360;DHT22;168;48.872;9.226;2023-04-01T08:09:26;11.60;91.80
360;DHT22;168;48.872;9.226;2023-04-01T08:12:04;11.50;92.20
360;DHT22;168;48.872;9.226;2023-04-01T08:14:43;11.50;92.40
360;DHT22;168;48.872;9.226;2023-04-01T08:17:17;11.60;92.20
360;DHT22;168;48.872;9.226;2023-04-01T08:19:56;11.60;92.60
360;DHT22;168;48.872;9.226;2023-04-01T08:22:29;11.70;92.30
360;DHT22;168;48.872;9.226;2023-04-01T08:25:02;11.90;91.90
360;DHT22;168;48.872;9.226;2023-04-01T08:27:37;12.00;92.20
360;DHT22;168;48.872;9.226;2023-04-01T08:30:16;12.00;91.90
360;DHT22;168;48.872;9.226;2023-04-01T08:32:48;11.90;90.90
360;DHT22;168;48.872;9.226;2023-04-01T08:35:24;11.70;92.00
360;DHT22;168;48.872;9.226;2023-04-01T08:37:55;11.60;92.40
360;DHT22;168;48.872;9.226;2023-04-01T08:52:21;11.30;96.00
360;DHT22;168;48.872;9.226;2023-04-01T08:58:24;11.10;95.90
360;DHT22;168;48.872;9.226;2023-04-01T09:01:09;10.90;96.10
360;DHT22;168;48.872;9.226;2023-04-01T09:03:48;10.80;96.40
360;DHT22;168;48.872;9.226;2023-04-01T09:06:29;10.80;96.30
360;DHT22;168;48.872;9.226;2023-04-01T09:09:22;10.80;96.20
360;DHT22;168;48.872;9.226;2023-04-01T09:12:19;10.90;96.30
360;DHT22;168;48.872;9.226;2023-04-01T09:15:12;10.90;96.10
360;DHT22;168;48.872;9.226;2023-04-01T09:20:59;11.10;96.60
360;DHT22;168;48.872;9.226;2023-04-01T09:26:46;11.40;95.30
360;DHT22;168;48.872;9.226;2023-04-01T09:29:41;11.60;95.30
360;DHT22;168;48.872;9.226;2023-04-01T09:32:54;11.60;94.50
360;DHT22;168;48.872;9.226;2023-04-01T09:35:34;11.70;94.90
360;DHT22;168;48.872;9.226;2023-04-01T09:38:20;11.80;94.50
360;DHT22;168;48.872;9.226;2023-04-01T09:40:55;12.00;93.70
360;DHT22;168;48.872;9.226;2023-04-01T09:43:28;11.90;93.00
360;DHT22;168;48.872;9.226;2023-04-01T09:46:08;11.80;93.80
360;DHT22;168;48.872;9.226;2023-04-01T09:51:57;11.60;93.70
360;DHT22;168;48.872;9.226;2023-04-01T09:54:49;11.50;93.60
360;DHT22;168;48.872;9.226;2023-04-01T09:57:38;11.60;93.70
360;DHT22;168;48.872;9.226;2023-04-01T10:00:36;11.70;93.10
360;DHT22;168;48.872;9.226;2023-04-01T10:03:36;11.70;93.50
360;DHT22;168;48.872;9.226;2023-04-01T10:15:40;11.60;91.70
360;DHT22;168;48.872;9.226;2023-04-01T10:21:46;11.60;92.20
360;DHT22;168;48.872;9.226;2023-04-01T10:27:49;11.80;91.20
360;DHT22;168;48.872;9.226;2023-04-01T10:34:18;11.90;90.90
360;DHT22;168;48.872;9.226;2023-04-01T10:36:53;11.90;90.70
360;DHT22;168;48.872;9.226;2023-04-01T10:39:54;11.80;89.90
360;DHT22;168;48.872;9.226;2023-04-01T10:49:03;11.90;90.40
360;DHT22;168;48.872;9.226;2023-04-01T10:52:15;11.80;91.20
360;DHT22;168;48.872;9.226;2023-04-01T10:55:04;11.70;91.30
360;DHT22;168;48.872;9.226;2023-04-01T10:58:00;11.70;92.20
360;DHT22;168;48.872;9.226;2023-04-01T11:07:31;11.50;91.50
360;DHT22;168;48.872;9.226;2023-04-01T11:19:56;12.00;90.00
360;DHT22;168;48.872;9.226;2023-04-01T11:23:00;12.10;89.80
360;DHT22;168;48.872;9.226;2023-04-01T11:25:50;12.10;89.10
360;DHT22;168;48.872;9.226;2023-04-01T11:28:46;11.90;89.00
360;DHT22;168;48.872;9.226;2023-04-01T11:31:33;12.00;89.90
360;DHT22;168;48.872;9.226;2023-04-01T11:34:11;12.10;88.60
360;DHT22;168;48.872;9.226;2023-04-01T11:36:47;12.20;87.80
360;DHT22;168;48.872;9.226;2023-04-01T11:39:24;12.20;87.50
360;DHT22;168;48.872;9.226;2023-04-01T11:42:05;12.30;88.50
360;DHT22;168;48.872;9.226;2023-04-01T11:44:40;12.60;87.60
360;DHT22;168;48.872;9.226;2023-04-01T11:47:20;12.60;86.70
360;DHT22;168;48.872;9.226;2023-04-01T11:49:59;12.60;86.50
360;DHT22;168;48.872;9.226;2023-04-01T11:52:45;12.70;87.20
360;DHT22;168;48.872;9.226;2023-04-01T11:55:33;12.70;86.40
360;DHT22;168;48.872;9.226;2023-04-01T11:58:23;12.80;85.30
360;DHT22;168;48.872;9.226;2023-04-01T12:01:13;12.70;85.40
360;DHT22;168;48.872;9.226;2023-04-01T12:04:00;12.70;86.70
360;DHT22;168;48.872;9.226;2023-04-01T12:06:35;12.80;87.40
360;DHT22;168;48.872;9.226;2023-04-01T12:09:12;12.90;87.60
360;DHT22;168;48.872;9.226;2023-04-01T12:11:51;12.80;88.10
360;DHT22;168;48.872;9.226;2023-04-01T12:14:26;12.80;88.10
360;DHT22;168;48.872;9.226;2023-04-01T12:16:59;12.60;87.70
360;DHT22;168;48.872;9.226;2023-04-01T12:19:35;12.60;87.70
360;DHT22;168;48.872;9.226;2023-04-01T12:22:37;12.70;88.00
360;DHT22;168;48.872;9.226;2023-04-01T12:25:18;12.90;87.60
360;DHT22;168;48.872;9.226;2023-04-01T12:27:59;13.00;86.60
360;DHT22;168;48.872;9.226;2023-04-01T12:30:45;13.00;87.00
360;DHT22;168;48.872;9.226;2023-04-01T12:33:36;13.10;87.60
360;DHT22;168;48.872;9.226;2023-04-01T12:36:21;13.20;86.80
360;DHT22;168;48.872;9.226;2023-04-01T12:39:03;13.10;86.60
360;DHT22;168;48.872;9.226;2023-04-01T12:41:44;13.10;87.10
360;DHT22;168;48.872;9.226;2023-04-01T12:44:37;13.00;85.90
360;DHT22;168;48.872;9.226;2023-04-01T12:47:21;13.10;85.90
360;DHT22;168;48.872;9.226;2023-04-01T12:50:10;13.10;84.90
360;DHT22;168;48.872;9.226;2023-04-01T12:53:06;13.10;83.60
360;DHT22;168;48.872;9.226;2023-04-01T12:55:39;13.00;84.10
360;DHT22;168;48.872;9.226;2023-04-01T12:58:42;13.00;83.90
360;DHT22;168;48.872;9.226;2023-04-01T13:01:31;12.90;84.20
360;DHT22;168;48.872;9.226;2023-04-01T13:04:46;12.80;84.70
360;DHT22;168;48.872;9.226;2023-04-01T13:10:54;12.80;84.50
360;DHT22;168;48.872;9.226;2023-04-01T13:13:48;12.70;84.80
360;DHT22;168;48.872;9.226;2023-04-01T13:16:24;12.70;85.70
360;DHT22;168;48.872;9.226;2023-04-01T13:19:00;12.50;86.40
360;DHT22;168;48.872;9.226;2023-04-01T13:21:41;12.50;86.90
360;DHT22;168;48.872;9.226;2023-04-01T13:24:22;12.50;88.50
360;DHT22;168;48.872;9.226;2023-04-01T13:26:58;12.30;89.40
360;DHT22;168;48.872;9.226;2023-04-01T13:29:32;12.20;89.50
360;DHT22;168;48.872;9.226;2023-04-01T13:32:10;12.20;90.10
360;DHT22;168;48.872;9.226;2023-04-01T13:34:52;12.20;89.90
360;DHT22;168;48.872;9.226;2023-04-01T13:37:45;12.10;89.90
360;DHT22;168;48.872;9.226;2023-04-01T13:40:40;12.00;89.80
360;DHT22;168;48.872;9.226;2023-04-01T13:43:14;12.00;89.60
360;DHT22;168;48.872;9.226;2023-04-01T13:46:16;12.00;90.10
360;DHT22;168;48.872;9.226;2023-04-01T13:52:06;12.00;90.00
360;DHT22;168;48.872;9.226;2023-04-01T13:54:55;12.10;90.50
360;DHT22;168;48.872;9.226;2023-04-01T14:00:26;12.30;89.00
360;DHT22;168;48.872;9.226;2023-04-01T14:03:21;12.10;90.00
360;DHT22;168;48.872;9.226;2023-04-01T14:06:01;11.90;91.60
360;DHT22;168;48.872;9.226;2023-04-01T14:08:55;11.80;91.40
360;DHT22;168;48.872;9.226;2023-04-01T14:11:34;11.60;91.40
360;DHT22;168;48.872;9.226;2023-04-01T14:14:13;11.60;91.00
360;DHT22;168;48.872;9.226;2023-04-01T14:17:10;11.60;91.00
360;DHT22;168;48.872;9.226;2023-04-01T14:20:06;11.80;90.60
360;DHT22;168;48.872;9.226;2023-04-01T14:22:46;11.90;90.40
360;DHT22;168;48.872;9.226;2023-04-01T14:25:39;12.00;90.00
360;DHT22;168;48.872;9.226;2023-04-01T14:28:13;12.10;89.80
360;DHT22;168;48.872;9.226;2023-04-01T14:30:53;12.20;90.50
360;DHT22;168;48.872;9.226;2023-04-01T14:33:34;12.30;90.90
360;DHT22;168;48.872;9.226;2023-04-01T14:36:28;12.50;90.30
360;DHT22;168;48.872;9.226;2023-04-01T14:39:08;12.40;90.80
360;DHT22;168;48.872;9.226;2023-04-01T14:41:46;12.10;92.40
360;DHT22;168;48.872;9.226;2023-04-01T14:44:23;12.10;94.00
360;DHT22;168;48.872;9.226;2023-04-01T14:50:08;12.10;93.90
360;DHT22;168;48.872;9.226;2023-04-01T14:52:39;12.00;93.50
360;DHT22;168;48.872;9.226;2023-04-01T14:55:29;12.00;93.90
360;DHT22;168;48.872;9.226;2023-04-01T14:58:07;11.90;94.50
360;DHT22;168;48.872;9.226;2023-04-01T15:00:50;11.90;93.80
360;DHT22;168;48.872;9.226;2023-04-01T15:03:28;11.90;94.30
360;DHT22;168;48.872;9.226;2023-04-01T15:06:11;12.10;94.20
360;DHT22;168;48.872;9.226;2023-04-01T15:08:46;12.10;92.70
360;DHT22;168;48.872;9.226;2023-04-01T15:11:33;12.30;92.60
360;DHT22;168;48.872;9.226;2023-04-01T15:14:42;12.30;92.20
360;DHT22;168;48.872;9.226;2023-04-01T15:17:23;12.30;91.20
360;DHT22;168;48.872;9.226;2023-04-01T15:20:21;12.40;91.40
360;DHT22;168;48.872;9.226;2023-04-01T15:23:01;12.40;91.00
360;DHT22;168;48.872;9.226;2023-04-01T15:25:49;12.50;91.30
360;DHT22;168;48.872;9.226;2023-04-01T15:28:24;12.50;90.50
360;DHT22;168;48.872;9.226;2023-04-01T15:31:01;12.30;90.50
360;DHT22;168;48.872;9.226;2023-04-01T15:33:42;12.20;91.10
360;DHT22;168;48.872;9.226;2023-04-01T15:36:20;12.20;91.80
360;DHT22;168;48.872;9.226;2023-04-01T15:38:53;12.20;91.40
360;DHT22;168;48.872;9.226;2023-04-01T15:41:27;12.30;91.30
360;DHT22;168;48.872;9.226;2023-04-01T15:43:54;12.40;90.70
360;DHT22;168;48.872;9.226;2023-04-01T15:46:31;12.20;91.00
360;DHT22;168;48.872;9.226;2023-04-01T15:49:19;12.20;91.50
360;DHT22;168;48.872;9.226;2023-04-01T15:52:02;12.10;91.70
360;DHT22;168;48.872;9.226;2023-04-01T15:54:53;12.10;91.00
360;DHT22;168;48.872;9.226;2023-04-01T15:57:29;12.10;91.10
360;DHT22;168;48.872;9.226;2023-04-01T16:00:11;12.10;91.20
360;DHT22;168;48.872;9.226;2023-04-01T16:02:48;12.10;90.90
360;DHT22;168;48.872;9.226;2023-04-01T16:05:28;12.00;90.60
360;DHT22;168;48.872;9.226;2023-04-01T16:08:17;11.90;91.20
360;DHT22;168;48.872;9.226;2023-04-01T16:10:59;11.80;91.50
360;DHT22;168;48.872;9.226;2023-04-01T16:13:40;11.80;91.20
360;DHT22;168;48.872;9.226;2023-04-01T16:16:19;11.70;91.10
360;DHT22;168;48.872;9.226;2023-04-01T16:21:45;11.70;91.10
360;DHT22;168;48.872;9.226;2023-04-01T16:24:20;11.80;90.50
360;DHT22;168;48.872;9.226;2023-04-01T16:26:53;11.70;90.50
360;DHT22;168;48.872;9.226;2023-04-01T16:29:28;11.70;90.60
360;DHT22;168;48.872;9.226;2023-04-01T16:32:12;11.70;90.70
360;DHT22;168;48.872;9.226;2023-04-01T16:34:46;11.80;90.80
360;DHT22;168;48.872;9.226;2023-04-01T16:37:19;11.70;90.50
360;DHT22;168;48.872;9.226;2023-04-01T16:39:52;11.70;90.80
360;DHT22;168;48.872;9.226;2023-04-01T16:42:31;11.70;90.80
360;DHT22;168;48.872;9.226;2023-04-01T16:45:15;11.80;90.30
360;DHT22;168;48.872;9.226;2023-04-01T16:47:47;11.70;90.60
360;DHT22;168;48.872;9.226;2023-04-01T16:50:19;11.80;90.40
360;DHT22;168;48.872;9.226;2023-04-01T16:53:08;11.80;90.40
360;DHT22;168;48.872;9.226;2023-04-01T16:55:45;11.80;90.50
360;DHT22;168;48.872;9.226;2023-04-01T16:58:21;11.70;90.50
360;DHT22;168;48.872;9.226;2023-04-01T17:00:51;11.80;90.80
360;DHT22;168;48.872;9.226;2023-04-01T17:03:25;11.80;91.00
360;DHT22;168;48.872;9.226;2023-04-01T17:06:07;11.80;91.10
360;DHT22;168;48.872;9.226;2023-04-01T17:09:00;11.80;91.30
360;DHT22;168;48.872;9.226;2023-04-01T17:11:36;11.90;91.10
360;DHT22;168;48.872;9.226;2023-04-01T17:14:13;11.90;90.70
360;DHT22;168;48.872;9.226;2023-04-01T17:17:05;11.90;90.30
360;DHT22;168;48.872;9.226;2023-04-01T17:19:45;11.90;90.50
360;DHT22;168;48.872;9.226;2023-04-01T17:22:25;12.00;90.80
360;DHT22;168;48.872;9.226;2023-04-01T17:28:02;12.00;90.90
360;DHT22;168;48.872;9.226;2023-04-01T17:30:34;12.00;90.90
360;DHT22;168;48.872;9.226;2023-04-01T17:36:16;12.10;91.20
360;DHT22;168;48.872;9.226;2023-04-01T17:38:57;12.10;91.30
360;DHT22;168;48.872;9.226;2023-04-01T17:41:36;12.00;91.20
360;DHT22;168;48.872;9.226;2023-04-01T17:44:16;12.10;91.40
360;DHT22;168;48.872;9.226;2023-04-01T17:47:01;12.00;91.10
360;DHT22;168;48.872;9.226;2023-04-01T17:49:33;11.90;91.70
360;DHT22;168;48.872;9.226;2023-04-01T17:52:09;11.90;91.90
360;DHT22;168;48.872;9.226;2023-04-01T17:54:43;11.90;91.30
360;DHT22;168;48.872;9.226;2023-04-01T17:57:31;11.80;92.00
360;DHT22;168;48.872;9.226;2023-04-01T18:00:06;11.80;92.30
360;DHT22;168;48.872;9.226;2023-04-01T18:02:46;11.80;92.50
360;DHT22;168;48.872;9.226;2023-04-01T18:05:33;11.70;92.70
360;DHT22;168;48.872;9.226;2023-04-01T18:08:15;11.70;93.20
360;DHT22;168;48.872;9.226;2023-04-01T18:11:00;11.50;94.10
360;DHT22;168;48.872;9.226;2023-04-01T18:16:44;11.40;95.10
360;DHT22;168;48.872;9.226;2023-04-01T18:19:20;11.30;95.50
360;DHT22;168;48.872;9.226;2023-04-01T18:21:51;11.40;95.60
360;DHT22;168;48.872;9.226;2023-04-01T18:24:24;11.40;95.60
360;DHT22;168;48.872;9.226;2023-04-01T18:27:03;11.40;95.50
360;DHT22;168;48.872;9.226;2023-04-01T18:29:37;11.40;95.70
360;DHT22;168;48.872;9.226;2023-04-01T18:32:17;11.30;95.70
360;DHT22;168;48.872;9.226;2023-04-01T18:34:55;11.30;95.80
360;DHT22;168;48.872;9.226;2023-04-01T18:37:28;11.20;95.40
360;DHT22;168;48.872;9.226;2023-04-01T18:40:03;11.20;95.00
360;DHT22;168;48.872;9.226;2023-04-01T18:42:45;11.00;95.10
360;DHT22;168;48.872;9.226;2023-04-01T18:45:22;11.00;95.30
360;DHT22;168;48.872;9.226;2023-04-01T18:47:58;11.00;95.30
360;DHT22;168;48.872;9.226;2023-04-01T18:50:32;11.00;95.40
360;DHT22;168;48.872;9.226;2023-04-01T18:53:13;10.90;95.70
360;DHT22;168;48.872;9.226;2023-04-01T18:55:47;10.90;95.80
360;DHT22;168;48.872;9.226;2023-04-01T18:58:25;10.90;96.00
360;DHT22;168;48.872;9.226;2023-04-01T19:01:15;10.90;96.10
360;DHT22;168;48.872;9.226;2023-04-01T19:03:54;11.00;96.10
360;DHT22;168;48.872;9.226;2023-04-01T19:06:30;11.00;96.10
360;DHT22;168;48.872;9.226;2023-04-01T19:09:15;11.10;95.80
360;DHT22;168;48.872;9.226;2023-04-01T19:11:55;11.00;95.90
360;DHT22;168;48.872;9.226;2023-04-01T19:14:38;10.90;96.10
360;DHT22;168;48.872;9.226;2023-04-01T19:17:17;10.80;95.90
360;DHT22;168;48.872;9.226;2023-04-01T19:19:52;10.80;95.70
360;DHT22;168;48.872;9.226;2023-04-01T19:22:40;10.60;95.60
360;DHT22;168;48.872;9.226;2023-04-01T19:25:32;10.60;95.40
360;DHT22;168;48.872;9.226;2023-04-01T19:28:15;10.40;95.50